Time;durP1;ratioP1;P1;durP2;ratioP2;P2;SDS_P1;SDS_P2;PMS_P1;PMS_P2;Temp;Humidity;BMP_temperature;BMP_pressure;BME280_temperature;BME280_humidity;BME280_pressure;Samples;Min_cycle;Max_cycle;Signal;HPM_P1;HPM_P2
2021/11/02 00:02:20;;;;;;;34.25;21.55;;;;;;;11.66;66.58;99256.84;5041793;28;20028;-67
2021/11/02 00:04:45;;;;;;;29.85;21.05;;;;;;;11.57;66.26;99247.91;5051133;28;20029;-67
2021/11/02 00:07:11;;;;;;;32.85;22.73;;;;;;;11.53;66.15;99252.78;5042665;28;20387;-67
2021/11/02 00:09:39;;;;;;;33.33;23.02;;;;;;;11.53;66.48;99250.13;5034380;28;20033;-67
2021/11/02 00:12:05;;;;;;;28.77;20.92;;;;;;;11.58;66.43;99255.00;5032758;28;20095;-67
2021/11/02 00:14:30;;;;;;;29.27;21.20;;;;;;;11.55;66.33;99248.09;5044778;28;20103;-67
2021/11/02 00:17:41;;;;;;;31.75;21.45;;;;;;;11.57;65.82;99263.22;5044944;28;20029;-68
2021/11/02 00:19:47;;;;;;;32.70;20.90;;;;;;;11.52;66.35;99251.09;5041886;28;20391;-67
2021/11/02 00:22:17;;;;;;;32.03;22.77;;;;;;;11.51;65.53;99260.16;5038859;28;20108;-67
2021/11/02 00:27:22;;;;;;;33.28;21.38;;;;;;;11.47;65.91;99248.09;5050846;28;20032;-67
2021/11/02 00:29:48;;;;;;;31.95;22.92;;;;;;;11.46;65.79;99250.94;5055116;28;20032;-67
2021/11/02 00:32:14;;;;;;;35.45;22.65;;;;;;;11.37;66.15;99244.72;5042593;28;20108;-67
2021/11/02 00:34:40;;;;;;;33.42;22.75;;;;;;;11.41;65.85;99253.28;5037057;28;20020;-67
2021/11/02 00:37:06;;;;;;;33.17;21.83;;;;;;;11.41;65.47;99253.28;5043515;28;20108;-66
2021/11/02 00:39:31;;;;;;;31.23;22.23;;;;;;;11.39;65.67;99245.38;5045562;28;20102;-67
2021/11/02 00:41:57;;;;;;;30.88;21.73;;;;;;;11.34;65.88;99234.31;5047284;28;20031;-67
2021/11/02 00:44:22;;;;;;;31.23;22.17;;;;;;;11.33;65.57;99213.84;5042608;28;21110;-67
2021/11/02 00:46:50;;;;;;;32.50;22.50;;;;;;;11.32;65.19;99201.41;5054633;28;20471;-67
2021/11/02 00:49:22;;;;;;;33.35;22.92;;;;;;;11.31;65.47;99202.44;5039183;28;20032;-66
2021/11/02 00:51:48;;;;;;;34.00;21.92;;;;;;;11.29;65.34;99193.69;5038042;28;20072;-67
2021/11/02 00:54:14;;;;;;;35.00;23.08;;;;;;;11.24;65.28;99188.00;5042781;28;20158;-67
2021/11/02 00:56:41;;;;;;;30.05;21.80;;;;;;;11.26;65.34;99195.91;5043845;28;20078;-66
2021/11/02 00:59:08;;;;;;;32.00;22.10;;;;;;;11.20;65.75;99189.34;5053755;28;20035;-67
2021/11/02 01:01:34;;;;;;;34.50;21.75;;;;;;;11.18;65.62;99185.13;5043555;28;20028;-66
2021/11/02 01:04:04;;;;;;;29.42;20.73;;;;;;;11.14;66.23;99181.97;5045515;28;20037;-67
2021/11/02 01:06:30;;;;;;;32.67;22.05;;;;;;;11.12;66.23;99175.06;5042662;28;20045;-63
2021/11/02 01:08:55;;;;;;;30.90;21.38;;;;;;;11.08;66.15;99185.31;5039858;28;20036;-62
2021/11/02 01:11:21;;;;;;;31.48;20.00;;;;;;;11.01;66.13;99178.06;5045850;28;20170;-62
2021/11/02 01:13:46;;;;;;;32.30;20.85;;;;;;;11.00;66.47;99182.59;5045399;28;20052;-62
2021/11/02 01:16:12;;;;;;;37.92;22.05;;;;;;;10.97;66.38;99190.16;5040488;28;20122;-63
2021/11/02 01:18:37;;;;;;;31.90;19.85;;;;;;;10.94;66.85;99201.19;5046781;28;20021;-62
2021/11/02 01:21:03;;;;;;;30.02;20.15;;;;;;;10.86;66.56;99182.38;5037936;28;20126;-63
2021/11/02 01:23:31;;;;;;;34.30;22.10;;;;;;;10.84;66.99;99184.41;5043551;28;20033;-64
2021/11/02 01:25:57;;;;;;;33.88;20.90;;;;;;;10.82;66.97;99189.94;5045948;28;20029;-62
2021/11/02 01:28:22;;;;;;;31.45;22.42;;;;;;;10.80;66.83;99189.25;5044021;28;20043;-62
2021/11/02 01:30:48;;;;;;;34.30;21.92;;;;;;;10.76;66.98;99187.91;5049150;28;20501;-63
2021/11/02 01:33:14;;;;;;;36.83;22.50;;;;;;;10.71;67.07;99184.88;5039771;28;20021;-63
2021/11/02 01:35:39;;;;;;;29.58;20.45;;;;;;;10.70;67.39;99185.88;5045427;28;20025;-62
2021/11/02 01:38:05;;;;;;;29.02;20.35;;;;;;;10.63;67.20;99187.53;5042481;28;20124;-63
2021/11/02 01:40:31;;;;;;;33.67;21.27;;;;;;;10.54;67.24;99172.41;5042021;28;20064;-67
2021/11/02 01:42:57;;;;;;;36.03;21.90;;;;;;;10.61;67.15;99168.09;5045672;28;20040;-67
2021/11/02 01:45:27;;;;;;;30.75;22.08;;;;;;;10.55;67.77;99166.03;5039410;28;20029;-67
2021/11/02 01:47:53;;;;;;;32.00;21.15;;;;;;;10.47;67.99;99152.63;5044003;28;20383;-67
2021/11/02 01:50:18;;;;;;;33.90;21.70;;;;;;;10.44;68.33;99149.41;5041607;28;20021;-67
2021/11/02 01:52:45;;;;;;;37.30;23.02;;;;;;;10.41;68.29;99141.69;5044005;28;20036;-67
2021/11/02 01:55:12;;;;;;;30.08;21.45;;;;;;;10.38;68.48;99144.72;5044116;28;20379;-68
2021/11/02 01:57:39;;;;;;;31.27;21.90;;;;;;;10.28;68.67;99136.81;5041343;28;20058;-68
2021/11/02 02:00:08;;;;;;;33.60;22.27;;;;;;;10.32;68.26;99143.50;5046314;28;20071;-67
2021/11/02 02:02:35;;;;;;;31.40;20.75;;;;;;;10.34;68.54;99143.34;5046508;28;20056;-67
2021/11/02 02:05:17;;;;;;;35.90;22.08;;;;;;;10.27;68.28;99142.31;5054459;28;20100;-67
2021/11/02 02:08:12;;;;;;;31.42;20.85;;;;;;;10.23;68.71;99133.78;5042287;28;20549;-67
2021/11/02 02:10:40;;;;;;;;;;;;;;;10.22;68.68;99134.78;5025676;28;20073;-67
2021/11/02 02:13:26;;;;;;;31.45;21.65;;;;;;;10.20;68.95;99131.44;5049099;28;19922;-67
2021/11/02 02:16:03;;;;;;;31.33;21.35;;;;;;;10.13;69.05;99130.38;5045466;28;20072;-67
2021/11/02 02:18:36;;;;;;;31.92;21.77;;;;;;;10.11;69.39;99126.19;5048435;28;20021;-67
2021/11/02 02:21:39;;;;;;;31.00;21.65;;;;;;;10.07;69.55;99120.31;5047588;28;20078;-67
2021/11/02 02:24:19;;;;;;;29.27;20.38;;;;;;;10.10;69.08;99105.75;5064475;28;20025;-67
2021/11/02 02:27:00;;;;;;;37.20;21.45;;;;;;;10.03;69.43;99113.56;5044182;28;20172;-67
2021/11/02 02:29:26;;;;;;;31.40;21.15;;;;;;;9.97;69.75;99100.84;5046237;28;20381;-67
2021/11/02 02:31:54;;;;;;;40.78;22.30;;;;;;;9.95;69.91;99110.84;5051286;28;20474;-67
2021/11/02 02:34:22;;;;;;;31.85;20.85;;;;;;;9.90;70.26;99104.31;5051321;28;20032;-67
2021/11/02 02:36:52;;;;;;;28.98;20.90;;;;;;;9.86;70.24;99113.66;5047230;28;20025;-68
2021/11/02 02:39:20;;;;;;;31.60;21.77;;;;;;;9.85;70.38;99117.31;5048338;28;20028;-67
2021/11/02 02:41:47;;;;;;;34.17;21.55;;;;;;;9.74;70.66;99112.25;5054330;28;20097;-67
2021/11/02 02:44:13;;;;;;;30.25;20.52;;;;;;;9.73;70.78;99111.41;5050600;28;20028;-68
2021/11/02 02:46:39;;;;;;;32.75;20.95;;;;;;;9.76;70.99;99112.91;5043616;28;22086;-67
2021/11/02 02:49:08;;;;;;;30.10;20.77;;;;;;;9.75;70.89;99114.78;5050517;28;20044;-68
2021/11/02 02:51:35;;;;;;;31.17;21.23;;;;;;;9.69;70.90;99103.84;5047567;28;20523;-67
2021/11/02 02:54:00;;;;;;;35.50;20.95;;;;;;;9.70;71.04;99109.03;5059920;28;20502;-67
2021/11/02 02:56:28;;;;;;;37.20;21.70;;;;;;;9.63;71.25;99094.59;5047122;28;20024;-67
2021/11/02 02:58:58;;;;;;;32.90;21.35;;;;;;;9.66;71.11;99096.13;5061536;28;21708;-67
2021/11/02 03:01:24;;;;;;;33.60;21.73;;;;;;;9.62;71.61;99098.28;5049282;28;20033;-68
2021/11/02 03:03:59;;;;;;;34.65;20.85;;;;;;;9.62;71.51;99097.44;5047633;28;20436;-67
2021/11/02 03:06:27;;;;;;;31.42;20.38;;;;;;;9.55;71.92;99093.72;5046515;28;20479;-67
2021/11/02 03:08:53;;;;;;;28.77;20.75;;;;;;;9.60;72.14;99104.78;5048637;28;20075;-67
2021/11/02 03:11:20;;;;;;;29.10;20.60;;;;;;;9.57;71.89;99094.41;5057028;28;20544;-67
2021/11/02 03:13:50;;;;;;;34.80;21.50;;;;;;;9.64;71.42;99093.59;5044044;28;20491;-67
2021/11/02 03:16:22;;;;;;;37.30;20.65;;;;;;;9.53;72.02;99083.19;5043292;28;20020;-67
2021/11/02 03:54:39;;;;;;;34.05;21.25;;;;;;;9.54;73.50;99087.53;5044326;28;20029;-63
2021/11/02 04:25:42;;;;;;;33.65;22.40;;;;;;;9.60;73.83;99060.13;5038841;28;20040;-67
2021/11/02 04:37:58;;;;;;;31.75;21.27;;;;;;;9.62;74.61;99039.41;5047448;28;20066;-67
2021/11/02 06:29:29;;;;;;;33.45;20.95;;;;;;;9.60;76.95;98939.69;5144553;27;20033;-66
2021/11/02 06:32:00;;;;;;;33.45;20.33;;;;;;;9.59;76.93;98938.03;5146385;27;20121;-66
2021/11/02 06:42:50;;;;;;;35.17;21.77;;;;;;;9.53;76.96;98948.50;5143172;27;20072;-66
2021/11/02 06:51:11;;;;;;;32.78;21.60;;;;;;;9.71;77.43;98998.28;5136905;27;20030;-67
2021/11/02 06:54:37;;;;;;;35.42;22.67;;;;;;;9.67;78.14;98991.56;5140512;27;20033;-66
2021/11/02 07:20:05;;;;;;;32.28;22.42;;;;;;;9.84;80.17;99005.88;5132594;27;20156;-67
2021/11/02 08:48:55;;;;;;;39.70;25.63;;;;;;;10.43;93.12;99024.47;5127065;27;20019;-66
2021/11/02 08:51:20;;;;;;;40.25;26.85;;;;;;;10.44;93.41;99031.50;5128551;27;20030;-66
2021/11/02 08:53:46;;;;;;;40.83;27.35;;;;;;;10.45;93.80;99028.66;5125576;27;20019;-66
2021/11/02 08:56:15;;;;;;;43.72;28.17;;;;;;;10.48;94.08;99036.34;5128238;27;20059;-66
2021/11/02 08:58:45;;;;;;;71.32;43.50;;;;;;;10.44;94.13;99028.81;5127019;27;20016;-66
2021/11/02 09:01:11;;;;;;;88.57;52.33;;;;;;;10.45;94.85;99033.19;5125051;27;20043;-66
2021/11/02 09:03:44;;;;;;;71.38;43.28;;;;;;;10.47;95.19;99031.16;5128071;27;20046;-66
2021/11/02 09:06:15;;;;;;;54.72;35.05;;;;;;;10.46;96.30;99026.81;5126582;27;20031;-66
2021/11/02 09:08:43;;;;;;;52.78;31.95;;;;;;;10.44;96.45;99010.03;5121560;27;20093;-66
2021/11/02 09:11:10;;;;;;;48.75;30.23;;;;;;;10.49;96.94;99018.44;5126878;27;20035;-66
2021/11/02 09:13:42;;;;;;;44.05;29.60;;;;;;;10.50;97.17;99012.06;5159653;27;20029;-66
2021/11/02 09:16:08;;;;;;;48.63;29.75;;;;;;;10.51;97.28;99022.63;5127810;27;20043;-66
2021/11/02 09:18:34;;;;;;;45.45;29.35;;;;;;;10.52;97.46;99021.66;5129601;27;20037;-66
2021/11/02 09:21:00;;;;;;;43.05;28.80;;;;;;;10.52;97.82;99015.44;5125649;27;20103;-66
2021/11/02 09:23:28;;;;;;;50.05;29.48;;;;;;;10.53;97.91;99009.91;5125647;27;20051;-66
2021/11/02 09:25:54;;;;;;;45.88;29.77;;;;;;;10.54;98.11;99002.69;5126681;27;20031;-66
2021/11/02 09:28:20;;;;;;;47.55;28.40;;;;;;;10.56;98.00;99008.72;5124649;27;20058;-66
2021/11/02 09:30:46;;;;;;;43.10;28.52;;;;;;;10.60;98.36;99010.06;5126674;27;20696;-66
2021/11/02 09:33:11;;;;;;;45.55;28.70;;;;;;;10.58;98.60;99004.88;5129520;27;20156;-66
2021/11/02 09:35:38;;;;;;;44.47;29.90;;;;;;;10.58;98.79;99015.59;5124050;27;20039;-66
2021/11/02 09:38:06;;;;;;;45.38;28.05;;;;;;;10.63;98.80;99018.63;5127333;27;20035;-66
2021/11/02 09:41:01;;;;;;;47.28;29.92;;;;;;;10.61;98.80;99015.25;5126913;27;20027;-66
2021/11/02 09:43:54;;;;;;;46.90;29.60;;;;;;;10.59;99.71;99022.66;5124110;27;20027;-66
2021/11/02 09:46:52;;;;;;;46.25;30.45;;;;;;;10.61;99.62;99027.84;5127874;27;20401;-66
2021/11/02 09:49:24;;;;;;;46.35;31.35;;;;;;;10.61;99.87;99019.81;5128138;27;20489;-65
2021/11/02 09:52:26;;;;;;;45.17;30.23;;;;;;;10.59;100.00;99019.97;5125198;27;20031;-65
2021/11/02 09:55:25;;;;;;;48.85;31.25;;;;;;;10.58;100.00;99012.91;5125507;28;20047;-66
2021/11/02 09:58:09;;;;;;;48.83;30.60;;;;;;;10.59;100.00;99011.09;5128209;27;20023;-66
2021/11/02 10:01:06;;;;;;;46.83;31.85;;;;;;;10.58;100.00;99012.91;5125768;27;20058;-66
2021/11/02 10:03:55;;;;;;;47.40;29.45;;;;;;;10.59;100.00;98997.69;5125259;27;20055;-66
2021/11/02 10:06:42;;;;;;;45.53;29.40;;;;;;;10.60;100.00;98994.84;5126319;27;20031;-66
2021/11/02 10:09:11;;;;;;;58.78;31.95;;;;;;;10.58;100.00;98975.38;5127451;28;20498;-66
2021/11/02 10:12:00;;;;;;;67.45;34.30;;;;;;;10.57;100.00;98967.50;5127725;27;20027;-65
2021/11/02 10:14:40;;;;;;;50.58;31.20;;;;;;;10.61;100.00;98968.88;5127389;27;20110;-66
2021/11/02 10:17:46;;;;;;;52.20;32.38;;;;;;;10.64;100.00;98965.84;5126431;27;20047;-65
2021/11/02 10:20:55;;;;;;;54.30;32.03;;;;;;;10.64;100.00;98980.06;5078447;28;20035;-65
2021/11/02 10:23:49;;;;;;;50.05;31.13;;;;;;;10.65;100.00;98976.41;5124657;27;20050;-65
2021/11/02 10:26:52;;;;;;;49.15;31.50;;;;;;;10.66;100.00;98971.88;5122156;27;20390;-65
2021/11/02 10:30:18;;;;;;;46.53;31.08;;;;;;;10.68;100.00;98976.03;5074501;27;20058;-66
2021/11/02 10:32:47;;;;;;;52.70;33.35;;;;;;;10.70;100.00;98979.41;5064568;28;20084;-66
2021/11/02 10:35:52;;;;;;;48.17;30.35;;;;;;;10.71;100.00;98975.72;5062135;28;20041;-65
2021/11/02 10:38:26;;;;;;;54.80;32.65;;;;;;;10.70;100.00;98971.38;5119508;27;20031;-66
2021/11/02 10:40:58;;;;;;;46.58;30.48;;;;;;;10.71;100.00;98964.16;5129873;27;20558;-66
2021/11/02 10:43:40;;;;;;;50.35;32.88;;;;;;;10.72;100.00;98961.31;5128515;27;20103;-65
2021/11/02 10:46:12;;;;;;;47.67;31.08;;;;;;;10.74;100.00;98953.13;5124585;27;20034;-66
2021/11/02 10:48:49;;;;;;;48.60;31.38;;;;;;;10.75;100.00;98961.00;5128835;27;20031;-66
2021/11/02 10:51:34;;;;;;;49.45;31.70;;;;;;;10.76;100.00;98959.13;5131523;27;20027;-65
2021/11/02 10:54:28;;;;;;;50.00;31.33;;;;;;;10.77;100.00;98950.91;5112820;27;20043;-65
2021/11/02 10:57:05;;;;;;;44.03;29.73;;;;;;;10.81;100.00;98957.59;5127595;27;20027;-66
2021/11/02 10:59:32;;;;;;;46.60;30.38;;;;;;;10.80;100.00;98953.25;5127258;27;20110;-66
2021/11/02 11:01:59;;;;;;;48.47;30.25;;;;;;;10.85;100.00;98950.91;5125322;27;20118;-66
2021/11/02 11:04:31;;;;;;;45.72;31.20;;;;;;;10.86;100.00;98946.38;5131249;27;20555;-66
2021/11/02 11:06:58;;;;;;;48.15;30.63;;;;;;;10.86;100.00;98941.84;5126581;27;20088;-65
2021/11/02 11:09:28;;;;;;;42.95;29.10;;;;;;;10.90;100.00;98940.50;5129525;27;20019;-65
2021/11/02 11:11:57;;;;;;;43.72;29.90;;;;;;;10.95;100.00;98954.25;5128249;27;20112;-66
2021/11/02 11:14:29;;;;;;;45.60;29.20;;;;;;;10.93;100.00;98942.03;5130466;27;20442;-65
2021/11/02 11:16:56;;;;;;;45.08;30.45;;;;;;;10.97;100.00;98946.03;5126321;27;20731;-67
2021/11/02 11:19:33;;;;;;;40.38;29.00;;;;;;;10.96;100.00;98947.88;5132019;27;20023;-67
2021/11/02 11:22:00;;;;;;;45.63;29.88;;;;;;;10.96;100.00;98944.34;5130346;27;20065;-67
2021/11/02 11:24:47;;;;;;;44.03;29.70;;;;;;;10.95;100.00;98940.00;5125812;27;20037;-67
2021/11/02 11:27:18;;;;;;;44.13;30.13;;;;;;;10.94;100.00;98924.91;5123376;27;20042;-67
2021/11/02 11:29:46;;;;;;;44.65;30.55;;;;;;;11.01;100.00;98933.94;5127496;27;20057;-67
2021/11/02 11:32:15;;;;;;;45.55;30.60;;;;;;;11.04;100.00;98936.28;5128201;27;20022;-67
2021/11/02 11:34:45;;;;;;;44.70;30.77;;;;;;;11.06;100.00;98928.94;5130861;27;20034;-68
2021/11/02 11:37:12;;;;;;;40.25;28.63;;;;;;;11.09;100.00;98925.88;5126014;27;20043;-67
2021/11/02 11:39:38;;;;;;;42.72;28.77;;;;;;;11.08;100.00;98921.53;5125130;27;20438;-68
2021/11/02 11:42:04;;;;;;;44.97;29.17;;;;;;;11.09;100.00;98921.34;5124001;27;20487;-68
2021/11/02 11:44:30;;;;;;;46.70;29.77;;;;;;;11.11;100.00;98918.50;5128180;27;20500;-67
2021/11/02 11:47:07;;;;;;;42.03;30.23;;;;;;;11.14;100.00;98919.00;5126593;27;20486;-67
2021/11/02 11:49:35;;;;;;;45.22;31.02;;;;;;;11.17;100.00;98921.34;5124732;27;20045;-68
2021/11/02 11:52:04;;;;;;;46.28;31.52;;;;;;;11.11;100.00;98908.63;5126897;27;20059;-67
2021/11/02 11:54:41;;;;;;;46.13;30.35;;;;;;;11.17;100.00;98912.44;5130677;27;20109;-68
2021/11/02 11:57:08;;;;;;;43.58;30.90;;;;;;;11.20;100.00;98918.31;5126065;27;20031;-67
2021/11/02 11:59:35;;;;;;;48.40;31.40;;;;;;;11.19;100.00;98907.75;5128164;27;20019;-67
2021/11/02 12:02:12;;;;;;;43.92;29.17;;;;;;;11.20;100.00;98910.25;5125238;27;20035;-68
2021/11/02 12:04:48;;;;;;;44.95;30.92;;;;;;;11.23;100.00;98917.13;5128989;27;20092;-68
2021/11/02 12:07:35;;;;;;;44.90;31.02;;;;;;;11.25;100.00;98913.25;5127688;27;20023;-68
2021/11/02 12:10:07;;;;;;;45.08;30.83;;;;;;;11.24;100.00;98902.69;5128528;27;20042;-68
2021/11/02 12:12:35;;;;;;;45.45;31.40;;;;;;;11.20;100.00;98904.91;5130642;27;20478;-68
2021/11/02 12:15:06;;;;;;;47.72;31.75;;;;;;;11.27;100.00;98916.63;5129509;27;20039;-68
2021/11/02 12:17:34;;;;;;;48.78;30.90;;;;;;;11.25;100.00;98910.56;5130348;27;20035;-68
2021/11/02 12:20:03;;;;;;;42.17;29.90;;;;;;;11.28;100.00;98912.91;5131312;27;20031;-68
2021/11/02 12:22:39;;;;;;;43.05;30.15;;;;;;;11.30;100.00;98916.25;5131589;27;20031;-68
2021/11/02 12:25:11;;;;;;;45.80;31.55;;;;;;;11.32;100.00;98911.53;5130274;27;20027;-68
2021/11/02 12:27:39;;;;;;;44.67;30.98;;;;;;;11.33;100.00;98918.59;5133429;27;20108;-68
2021/11/02 12:30:09;;;;;;;44.40;31.13;;;;;;;11.35;100.00;98916.56;5129999;27;20368;-66
2021/11/02 12:32:35;;;;;;;39.75;28.83;;;;;;;11.39;100.00;98917.06;5126202;27;20023;-66
2021/11/02 12:35:05;;;;;;;40.85;29.38;;;;;;;11.37;100.00;98911.03;5130068;27;20062;-66
2021/11/02 12:37:32;;;;;;;43.35;30.13;;;;;;;11.39;100.00;98917.88;5124281;27;20424;-66
2021/11/02 12:40:14;;;;;;;44.28;30.05;;;;;;;11.43;100.00;98921.91;5127712;27;20569;-66
2021/11/02 12:42:42;;;;;;;40.72;28.63;;;;;;;11.42;100.00;98928.28;5127489;27;20051;-67
2021/11/02 12:45:10;;;;;;;40.05;28.73;;;;;;;11.44;100.00;98922.72;5126001;27;20123;-66
2021/11/02 12:47:36;;;;;;;39.22;28.23;;;;;;;11.44;100.00;98922.72;5128374;27;20030;-67
2021/11/02 12:50:04;;;;;;;42.28;27.95;;;;;;;11.48;100.00;98926.75;5127603;27;20030;-66
2021/11/02 12:52:32;;;;;;;38.55;27.77;;;;;;;11.47;100.00;98915.19;5128224;27;20395;-66
2021/11/02 12:55:24;;;;;;;37.53;27.95;;;;;;;11.49;100.00;98925.75;5127742;27;20531;-67
2021/11/02 12:57:58;;;;;;;41.92;29.48;;;;;;;11.49;100.00;98928.44;5128302;27;20039;-66
2021/11/02 13:00:27;;;;;;;;;;;;;;;11.52;100.00;98931.59;5124817;27;20030;-66
2021/11/02 13:03:05;;;;;;;40.35;28.67;;;;;;;11.46;100.00;98926.09;5124428;27;19947;-66
2021/11/02 13:05:31;;;;;;;38.60;27.20;;;;;;;11.51;100.00;98939.81;5123768;27;20023;-66
2021/11/02 13:08:08;;;;;;;35.72;25.70;;;;;;;11.52;100.00;98949.56;5129985;27;20035;-66
2021/11/02 13:10:35;;;;;;;35.30;25.67;;;;;;;11.48;100.00;98942.84;5126567;27;20034;-66
2021/11/02 13:13:09;;;;;;;36.88;26.05;;;;;;;11.46;100.00;98948.41;5125822;27;20027;-66
2021/11/02 13:15:48;;;;;;;38.38;27.55;;;;;;;11.48;100.00;98961.63;5123288;27;20030;-66
2021/11/02 13:18:39;;;;;;;39.13;28.67;;;;;;;11.48;100.00;98959.81;5127552;27;20027;-66
2021/11/02 13:21:20;;;;;;;32.75;25.50;;;;;;;11.47;100.00;98952.75;5127197;27;20476;-66
2021/11/02 13:23:54;;;;;;;37.67;26.38;;;;;;;11.47;100.00;98962.66;5127699;27;20051;-66
2021/11/02 13:26:20;;;;;;;36.28;25.70;;;;;;;11.42;100.00;98952.44;5126601;27;20023;-66
2021/11/02 13:28:47;;;;;;;33.75;24.60;;;;;;;11.41;100.00;98955.28;5126205;27;20046;-66
2021/11/02 13:31:29;;;;;;;34.20;24.75;;;;;;;11.42;100.00;98960.50;5125979;27;20118;-66
2021/11/02 13:34:00;;;;;;;34.47;25.25;;;;;;;11.41;100.00;98956.13;5124329;27;20066;-66
2021/11/02 13:36:25;;;;;;;29.42;22.10;;;;;;;11.41;100.00;98966.88;5127374;27;20112;-66
2021/11/02 13:38:59;;;;;;;30.52;23.08;;;;;;;11.30;100.00;98950.31;5122717;27;20616;-66
2021/11/02 13:41:26;;;;;;;29.20;22.38;;;;;;;11.38;100.00;98967.22;5122599;27;20020;-66
2021/11/02 13:44:01;;;;;;;27.98;21.02;;;;;;;11.40;100.00;98962.53;5127825;27;20046;-66
2021/11/02 13:46:29;;;;;;;27.38;20.73;;;;;;;11.40;100.00;98975.09;5118039;27;21886;-66
2021/11/02 13:48:55;;;;;;;27.55;20.73;;;;;;;11.35;100.00;98964.03;5122271;27;20382;-66
2021/11/02 13:51:22;;;;;;;30.15;20.92;;;;;;;11.34;100.00;98973.94;5126964;27;20403;-66
2021/11/02 13:53:49;;;;;;;27.63;21.05;;;;;;;11.36;100.00;98982.66;5124288;27;20114;-66
2021/11/02 13:56:15;;;;;;;28.13;21.27;;;;;;;11.41;100.00;98982.13;5125385;27;20142;-66
2021/11/02 13:58:42;;;;;;;27.40;20.02;;;;;;;11.38;100.00;98980.66;5127884;27;20106;-66
2021/11/02 14:01:17;;;;;;;30.23;21.58;;;;;;;11.36;100.00;98984.53;5126162;27;20366;-67
2021/11/02 14:03:49;;;;;;;29.45;20.48;;;;;;;11.35;100.00;98982.81;5131031;27;20035;-67
2021/11/02 14:06:21;;;;;;;27.48;20.30;;;;;;;11.30;100.00;98994.09;5126114;27;20123;-67
2021/11/02 14:08:47;;;;;;;28.52;20.33;;;;;;;11.31;100.00;98994.91;5124610;27;20047;-66
2021/11/02 14:11:25;;;;;;;28.45;21.65;;;;;;;11.24;100.00;98999.28;5128948;27;20031;-66
2021/11/02 14:13:52;;;;;;;29.30;21.67;;;;;;;11.23;100.00;99014.56;5128744;27;20539;-66
2021/11/02 14:16:35;;;;;;;29.85;20.88;;;;;;;11.27;100.00;99029.31;5131627;27;20038;-67
2021/11/02 14:19:00;;;;;;;31.15;21.00;;;;;;;11.25;100.00;99023.28;5125905;27;20575;-67
2021/11/02 14:21:48;;;;;;;26.88;18.80;;;;;;;11.28;100.00;99028.31;5130333;27;20062;-67
2021/11/02 14:24:15;;;;;;;26.10;18.85;;;;;;;11.18;100.00;99033.03;5130803;27;20352;-67
2021/11/02 14:26:50;;;;;;;29.92;20.23;;;;;;;11.11;100.00;99032.03;5132532;27;20109;-65
2021/11/02 14:29:16;;;;;;;27.83;19.92;;;;;;;11.09;100.00;99050.13;5133876;27;20110;-66
2021/11/02 14:31:45;;;;;;;27.60;20.20;;;;;;;11.07;100.00;99049.44;5128399;27;20028;-67
2021/11/02 14:34:26;;;;;;;25.88;19.10;;;;;;;11.06;100.00;99042.41;5132326;27;20015;-66
2021/11/02 14:37:28;;;;;;;28.85;20.67;;;;;;;10.97;100.00;99047.97;5132964;27;20042;-66
2021/11/02 14:40:00;;;;;;;27.23;19.10;;;;;;;10.93;100.00;99070.78;5137341;27;20043;-66
2021/11/02 14:42:48;;;;;;;29.85;21.02;;;;;;;10.91;100.00;99068.25;5134773;27;20023;-66
2021/11/02 14:45:16;;;;;;;31.77;22.13;;;;;;;10.81;100.00;99077.47;5133267;27;20022;-67
2021/11/02 14:47:42;;;;;;;34.95;23.63;;;;;;;10.79;100.00;99084.81;5133649;27;20031;-66
2021/11/02 14:50:31;;;;;;;35.67;24.92;;;;;;;10.73;100.00;99089.03;5131380;27;20355;-67
2021/11/02 14:53:27;;;;;;;34.28;23.52;;;;;;;10.65;100.00;99089.03;5127580;27;20522;-67
2021/11/02 14:55:56;;;;;;;35.67;24.60;;;;;;;10.63;100.00;99104.41;5126974;27;20084;-66
2021/11/02 14:58:39;;;;;;;36.67;23.42;;;;;;;10.63;100.00;99111.63;5128444;27;20046;-66
2021/11/02 15:01:25;;;;;;;31.98;23.05;;;;;;;10.53;100.00;99106.41;5124718;27;20408;-67
2021/11/02 15:04:04;;;;;;;32.00;21.80;;;;;;;10.44;100.00;99118.09;5124334;27;20043;-66
2021/11/02 15:06:55;;;;;;;31.48;22.10;;;;;;;10.37;100.00;99117.09;5126989;27;20124;-66
2021/11/02 15:09:22;;;;;;;35.83;23.42;;;;;;;10.32;100.00;99124.75;5120848;27;20019;-66
2021/11/02 15:11:50;;;;;;;35.70;24.10;;;;;;;10.34;100.00;99128.13;5123123;27;20054;-66
2021/11/02 15:14:25;;;;;;;35.70;23.92;;;;;;;10.25;100.00;99130.94;5123734;27;20107;-66
2021/11/02 15:16:52;;;;;;;33.55;22.02;;;;;;;10.18;100.00;99120.03;5128678;27;20038;-66
2021/11/02 15:19:19;;;;;;;30.95;20.80;;;;;;;10.05;100.00;99108.03;5126195;27;20031;-66
2021/11/02 15:21:51;;;;;;;32.33;21.63;;;;;;;10.12;100.00;99127.88;5124909;27;20493;-66
2021/11/02 15:24:26;;;;;;;30.60;21.08;;;;;;;10.03;100.00;99121.59;5127981;27;20466;-66
2021/11/02 15:27:04;;;;;;;28.45;20.35;;;;;;;9.98;100.00;99134.63;5129803;27;20023;-66
2021/11/02 15:29:33;;;;;;;29.77;20.45;;;;;;;9.95;100.00;99134.09;5125234;27;20477;-65
2021/11/02 15:32:15;;;;;;;30.02;20.38;;;;;;;9.88;100.00;99141.94;5128130;27;20091;-66
2021/11/02 15:35:08;;;;;;;27.25;19.63;;;;;;;9.87;100.00;99147.47;5131642;27;20027;-66
2021/11/02 15:37:36;;;;;;;27.33;19.15;;;;;;;9.83;100.00;99156.81;5123202;27;20058;-66
2021/11/02 15:40:10;;;;;;;28.05;19.85;;;;;;;9.84;100.00;99162.03;5126468;27;20092;-66
2021/11/02 15:42:42;;;;;;;29.50;19.03;;;;;;;9.85;100.00;99169.03;5128418;27;20507;-67
2021/11/02 15:45:37;;;;;;;27.27;19.23;;;;;;;9.81;100.00;99178.41;5126599;27;20050;-66
2021/11/02 15:48:13;;;;;;;29.70;20.40;;;;;;;9.72;100.00;99181.16;5130445;27;20046;-66
2021/11/02 15:50:47;;;;;;;30.95;21.42;;;;;;;9.69;100.00;99181.47;5132637;27;20023;-66
2021/11/02 15:53:13;;;;;;;;;;;;;;;9.68;100.00;99201.22;5128070;27;21665;-66
2021/11/02 15:55:39;;;;;;;29.90;20.63;;;;;;;9.69;100.00;99209.09;5127539;27;19919;-67
2021/11/02 15:58:07;;;;;;;32.05;21.02;;;;;;;9.69;100.00;99209.09;5132038;27;20455;-67
2021/11/02 16:00:36;;;;;;;38.78;24.15;;;;;;;9.67;100.00;99207.56;5131383;27;20034;-66
2021/11/02 16:03:03;;;;;;;41.70;26.70;;;;;;;9.70;100.00;99218.78;5130175;27;20035;-66
2021/11/02 16:05:31;;;;;;;37.58;24.33;;;;;;;9.67;100.00;99231.66;5129066;27;20039;-66
2021/11/02 16:08:02;;;;;;;32.75;22.73;;;;;;;9.68;100.00;99233.34;5129839;27;20027;-67
2021/11/02 16:10:29;;;;;;;32.35;23.40;;;;;;;9.65;100.00;99230.97;5130278;27;20098;-67
2021/11/02 16:12:56;;;;;;;31.95;23.77;;;;;;;9.67;100.00;99229.81;5132450;27;20095;-66
2021/11/02 16:15:26;;;;;;;35.20;24.08;;;;;;;9.61;100.00;99237.63;5129100;27;20023;-67
2021/11/02 16:17:57;;;;;;;34.08;23.48;;;;;;;9.59;100.00;99244.97;5122717;27;20035;-67
2021/11/02 16:20:26;;;;;;;34.65;23.92;;;;;;;9.60;100.00;99243.97;5153802;27;20046;-66
2021/11/02 16:23:02;;;;;;;35.70;24.52;;;;;;;9.61;100.00;99246.50;5128926;27;20026;-66
2021/11/02 16:25:33;;;;;;;33.22;24.42;;;;;;;9.61;100.00;99251.84;5126964;27;20027;-66
2021/11/02 16:27:58;;;;;;;33.00;24.70;;;;;;;9.62;100.00;99253.53;5130674;27;20038;-66
2021/11/02 16:30:30;;;;;;;32.22;24.67;;;;;;;9.57;100.00;99261.19;5131364;27;20467;-67
2021/11/02 16:32:56;;;;;;;29.98;22.13;;;;;;;9.54;100.00;99258.81;5130056;27;20022;-66
2021/11/02 16:35:31;;;;;;;28.13;21.15;;;;;;;9.56;100.00;99264.88;5126709;27;20023;-67
2021/11/02 16:37:56;;;;;;;;;;;;;;;9.56;100.00;99259.50;5131457;27;20019;-66
2021/11/02 16:40:28;;;;;;;29.13;21.02;;;;;;;9.55;100.00;99260.53;5131295;27;20401;-67
2021/11/02 16:43:01;;;;;;;29.13;20.17;;;;;;;9.56;100.00;99261.34;5129759;27;20014;-66
2021/11/02 16:45:35;;;;;;;28.10;21.17;;;;;;;9.57;100.00;99271.88;5160279;27;20050;-67
2021/11/02 16:48:07;;;;;;;27.65;20.27;;;;;;;9.61;100.00;99270.59;5130745;27;20031;-66
2021/11/02 16:50:36;;;;;;;27.13;20.85;;;;;;;9.60;100.00;99281.44;5127820;27;20027;-66